CheckWX is a tool to help pilots better visualize weather data.  It is not intended as a substitute for an official pre-flight weather briefing.

18:09:34 UTC

F44 METAR
Athens Municipal Airport
Athens, Texas, USA
Current

35 mins ago

KF44 201735Z AUTO 03011G17KT 010V070 10SM OVC019 07/03 A3046 RMK AO2
Observed
Feb-20 @ 17:35 UTC
Wind
  • 030° at 11 KTS
  • Gusting to 17 KTS
Visibility
10 SM
Flight Rules
MVFR
Cloud Levels
  • Overcast at 1,900' AGL
Temperature
C / 45°F
Dewpoint
C / 37°F
Humidity
76%
Altimeter
30.46" Hg
Pressure
1031.52 hPa
Previous

55 mins ago

KF44 201715Z AUTO 04012G19KT 10SM BKN019 OVC043 07/03 A3046 RMK AO2
Observed
Feb-20 @ 17:15 UTC
Wind
  • 040° at 12 KTS
  • Gusting to 19 KTS
Visibility
10 SM
Flight Rules
MVFR
Cloud Levels
  • Broken at 1,900' AGL
  • Overcast at 4,300' AGL
Temperature
C / 45°F
Dewpoint
C / 37°F
Humidity
76%
Altimeter
30.46" Hg
Pressure
1031.52 hPa
Previous

1 hour ago

KF44 201655Z AUTO 03010KT 10SM SCT017 BKN044 OVC055 07/03 A3045 RMK AO2
Observed
Feb-20 @ 16:55 UTC
Wind
  • 030° at 10 KTS
Visibility
10 SM
Flight Rules
VFR
Cloud Levels
  • Scattered at 1,700' AGL
  • Broken at 4,400' AGL
  • Overcast at 5,500' AGL
Temperature
C / 45°F
Dewpoint
C / 37°F
Humidity
76%
Altimeter
30.45" Hg
Pressure
1031.12 hPa